createdAt,value
2023-02-28T00:00:51.814Z,101370.54
2023-02-28T00:03:42.183Z,101362.85
2023-02-28T00:06:32.503Z,101380.67
2023-02-28T00:09:23.086Z,101380.34
2023-02-28T00:12:14.570Z,101372.30
2023-02-28T00:15:05.384Z,101371.44
2023-02-28T00:17:56.189Z,101371.06
2023-02-28T00:20:47.541Z,101365.67
2023-02-28T00:23:38.614Z,101374.10
2023-02-28T00:26:29.204Z,101390.13
2023-02-28T00:29:19.568Z,101376.17
2023-02-28T00:32:10.880Z,101372.96
2023-02-28T00:35:02.182Z,101383.19
2023-02-28T00:37:53.477Z,101375.73
2023-02-28T00:40:44.110Z,101365.50
2023-02-28T00:43:36.834Z,101368.92
2023-02-28T00:46:27.286Z,101376.00
2023-02-28T00:49:17.745Z,101382.02
2023-02-28T00:52:08.175Z,101382.85
2023-02-28T00:54:58.303Z,101385.64
2023-02-28T00:57:48.702Z,101385.55
2023-02-28T01:00:38.763Z,101397.10
2023-02-28T01:03:28.934Z,101392.97
2023-02-28T01:06:18.992Z,101387.32
2023-02-28T01:09:10.077Z,101400.42
2023-02-28T01:12:00.264Z,101401.18
2023-02-28T01:14:52.661Z,101397.45
2023-02-28T01:17:46.208Z,101406.09
2023-02-28T01:20:38.493Z,101409.47
2023-02-28T01:23:28.864Z,101417.47
2023-02-28T01:26:22.059Z,101418.42
2023-02-28T01:29:12.345Z,101428.41
2023-02-28T01:32:02.616Z,101416.02
2023-02-28T01:34:52.954Z,101409.48
2023-02-28T01:37:43.146Z,101404.39
2023-02-28T01:40:33.307Z,101395.83
2023-02-28T01:43:28.745Z,101413.28
2023-02-28T01:46:19.029Z,101416.02
2023-02-28T01:49:15.668Z,101403.06
2023-02-28T01:52:06.387Z,101396.94
2023-02-28T01:54:59.239Z,101385.18
2023-02-28T01:57:53.089Z,101363.73
2023-02-28T02:00:43.804Z,101366.30
2023-02-28T02:03:37.877Z,101361.42
2023-02-28T02:06:31.630Z,101351.75
2023-02-28T02:09:21.794Z,101350.41
2023-02-28T02:12:26.882Z,101350.87
2023-02-28T02:15:25.855Z,101358.81
2023-02-28T02:18:26.965Z,101356.42
2023-02-28T02:21:42.006Z,101364.14
2023-02-28T02:24:52.654Z,101348.95
2023-02-28T02:27:58.004Z,101348.58
2023-02-28T02:31:28.721Z,101353.29
2023-02-28T02:34:34.536Z,101344.53
2023-02-28T02:37:39.480Z,101333.23
2023-02-28T02:40:38.331Z,101330.92
2023-02-28T02:43:33.502Z,101340.92
2023-02-28T02:46:28.462Z,101327.05
2023-02-28T02:49:22.626Z,101331.15
2023-02-28T02:52:17.007Z,101325.89
2023-02-28T02:55:12.133Z,101324.00
2023-02-28T02:58:05.909Z,101320.44
2023-02-28T03:01:00.300Z,101322.79
2023-02-28T03:03:51.061Z,101328.23
2023-02-28T03:06:42.571Z,101327.08
2023-02-28T03:09:37.740Z,101335.33
2023-02-28T03:12:42.758Z,101336.06
2023-02-28T03:15:42.019Z,101322.23
2023-02-28T03:18:42.689Z,101328.29
2023-02-28T03:21:41.089Z,101320.69
2023-02-28T03:24:38.282Z,101312.63
2023-02-28T03:27:32.388Z,101315.89
2023-02-28T03:30:32.143Z,101313.41
2023-02-28T03:33:25.530Z,101320.14
2023-02-28T03:36:19.994Z,101327.20
2023-02-28T03:39:16.091Z,101318.14
2023-02-28T03:42:12.282Z,101321.14
2023-02-28T03:45:08.750Z,101334.55
2023-02-28T03:48:05.306Z,101346.37
2023-02-28T03:51:00.913Z,101344.31
2023-02-28T03:53:56.050Z,101349.38
2023-02-28T03:56:51.644Z,101344.52
2023-02-28T03:59:45.647Z,101340.34
2023-02-28T04:02:36.350Z,101340.48
2023-02-28T04:05:27.109Z,101360.96
2023-02-28T04:08:17.716Z,101368.33
2023-02-28T04:11:17.294Z,101367.12
2023-02-28T04:14:08.505Z,101362.58
2023-02-28T04:16:59.039Z,101361.61
2023-02-28T04:19:49.446Z,101366.77
2023-02-28T04:22:40.401Z,101367.73
2023-02-28T04:25:30.418Z,101370.88
2023-02-28T04:28:21.255Z,101367.23
2023-02-28T04:31:13.306Z,101373.41
2023-02-28T04:34:06.344Z,101358.86
2023-02-28T04:37:11.913Z,101365.42
2023-02-28T04:40:03.654Z,101361.02
2023-02-28T04:42:54.179Z,101377.59
2023-02-28T04:45:44.534Z,101367.61
2023-02-28T04:48:36.988Z,101359.10
2023-02-28T04:51:27.398Z,101356.10
2023-02-28T04:54:19.407Z,101349.33
2023-02-28T04:57:09.952Z,101345.36
2023-02-28T05:00:00.316Z,101362.38
2023-02-28T05:02:50.765Z,101363.16
2023-02-28T05:05:41.741Z,101371.90
2023-02-28T05:08:31.852Z,101372.21
2023-02-28T05:11:25.717Z,101360.98
2023-02-28T05:14:17.013Z,101378.00
2023-02-28T05:17:07.746Z,101371.42
2023-02-28T05:20:09.751Z,101383.73
2023-02-28T05:23:05.810Z,101402.45
2023-02-28T05:25:56.704Z,101401.94
2023-02-28T05:28:47.337Z,101396.15
2023-02-28T05:31:38.552Z,101393.27
2023-02-28T05:34:29.421Z,101391.15
2023-02-28T05:37:19.708Z,101395.85
2023-02-28T05:40:12.712Z,101390.39
2023-02-28T05:43:03.265Z,101390.60
2023-02-28T05:45:53.546Z,101395.77
2023-02-28T05:48:48.268Z,101397.39
2023-02-28T05:51:41.182Z,101387.17
2023-02-28T05:54:31.011Z,101385.80
2023-02-28T05:57:24.745Z,101384.05
2023-02-28T06:00:19.060Z,101390.02
2023-02-28T06:03:08.955Z,101391.84
2023-02-28T06:05:59.323Z,101401.30
2023-02-28T06:08:49.415Z,101396.96
2023-02-28T06:11:40.839Z,101401.05
2023-02-28T06:14:32.233Z,101411.50
2023-02-28T06:17:22.654Z,101412.28
2023-02-28T06:20:14.953Z,101420.42
2023-02-28T06:23:05.156Z,101425.92
2023-02-28T06:25:58.807Z,101425.83
2023-02-28T06:28:49.044Z,101427.99
2023-02-28T06:31:39.646Z,101429.84
2023-02-28T06:34:29.720Z,101426.52
2023-02-28T06:37:19.791Z,101416.79
2023-02-28T06:40:14.098Z,101422.85
2023-02-28T06:43:04.190Z,101430.41
2023-02-28T06:45:57.415Z,101433.02
2023-02-28T06:48:48.689Z,101438.34
2023-02-28T06:51:40.297Z,101446.44
2023-02-28T06:54:30.391Z,101455.63
2023-02-28T06:57:21.019Z,101457.57
2023-02-28T07:00:14.280Z,101467.17
2023-02-28T07:03:04.341Z,101456.61
2023-02-28T07:05:54.363Z,101454.38
2023-02-28T07:08:44.945Z,101459.27
2023-02-28T07:11:35.263Z,101457.92
2023-02-28T07:14:25.553Z,101452.23
2023-02-28T07:17:15.787Z,101447.78
2023-02-28T07:20:06.400Z,101457.07
2023-02-28T07:22:57.531Z,101457.84
2023-02-28T07:25:48.181Z,101473.21
2023-02-28T07:28:38.049Z,101457.64
2023-02-28T07:31:28.689Z,101454.91
2023-02-28T07:34:19.261Z,101458.76
2023-02-28T07:37:09.715Z,101457.38
2023-02-28T07:40:00.081Z,101463.82
2023-02-28T07:42:50.155Z,101463.05
2023-02-28T07:45:41.250Z,101463.48
2023-02-28T07:48:31.699Z,101465.36
2023-02-28T07:51:22.046Z,101466.27
2023-02-28T07:54:12.489Z,101462.67
2023-02-28T07:57:04.101Z,101473.63
2023-02-28T07:59:54.308Z,101467.27
2023-02-28T08:02:44.856Z,101471.30
2023-02-28T08:05:35.546Z,101457.52
2023-02-28T08:08:32.493Z,101457.32
2023-02-28T08:11:22.890Z,101461.73
2023-02-28T08:14:12.892Z,101456.73
2023-02-28T08:17:03.883Z,101444.64
2023-02-28T08:19:54.075Z,101434.81
2023-02-28T08:22:46.111Z,101437.87
2023-02-28T08:25:37.029Z,101436.60
2023-02-28T08:28:27.821Z,101431.73
2023-02-28T08:31:19.701Z,101424.80
2023-02-28T08:34:11.882Z,101410.77
2023-02-28T08:37:01.565Z,101413.09
2023-02-28T08:39:54.733Z,101421.05
2023-02-28T08:42:46.442Z,101422.51
2023-02-28T08:45:36.412Z,101426.05
2023-02-28T08:48:26.939Z,101423.25
2023-02-28T08:51:27.337Z,101429.32
2023-02-28T08:54:20.510Z,101420.63
2023-02-28T08:57:10.931Z,101422.52
2023-02-28T09:00:03.046Z,101417.52
2023-02-28T09:02:53.196Z,101419.80
2023-02-28T09:05:43.363Z,101428.10
2023-02-28T09:08:34.120Z,101428.23
2023-02-28T09:11:24.145Z,101423.45
2023-02-28T09:14:14.083Z,101429.02
2023-02-28T09:19:59.716Z,101430.05
2023-02-28T09:22:49.797Z,101435.94
2023-02-28T09:25:40.106Z,101442.05
2023-02-28T09:28:31.490Z,101445.48
2023-02-28T09:31:24.003Z,101441.80
2023-02-28T09:34:14.225Z,101444.89
2023-02-28T09:37:04.762Z,101452.44
2023-02-28T09:39:55.144Z,101453.85
2023-02-28T09:42:45.377Z,101467.41
2023-02-28T09:45:41.482Z,101466.12
2023-02-28T09:48:40.711Z,101485.88
2023-02-28T09:51:50.208Z,101485.21
2023-02-28T09:54:41.640Z,101479.86
2023-02-28T09:57:40.149Z,101489.15
2023-02-28T10:00:35.941Z,101502.88
2023-02-28T10:03:38.036Z,101515.89
2023-02-28T10:06:36.186Z,101511.77
2023-02-28T10:09:30.222Z,101512.30
2023-02-28T10:12:22.262Z,101514.91
2023-02-28T10:15:19.283Z,101517.52
2023-02-28T10:18:17.262Z,101529.80
2023-02-28T10:21:08.416Z,101535.68
2023-02-28T10:24:06.708Z,101540.19
2023-02-28T10:27:02.320Z,101549.73
2023-02-28T10:29:57.689Z,101538.77
2023-02-28T10:32:54.603Z,101538.72
2023-02-28T10:35:44.956Z,101536.89
2023-02-28T10:38:38.977Z,101544.27
2023-02-28T10:41:35.893Z,101539.98
2023-02-28T10:44:28.225Z,101547.52
2023-02-28T10:47:21.869Z,101543.58
2023-02-28T10:50:31.606Z,101530.45
2023-02-28T10:53:36.046Z,101528.20
2023-02-28T10:56:32.562Z,101534.02
2023-02-28T10:59:32.867Z,101531.38
2023-02-28T11:02:38.859Z,101520.86
2023-02-28T11:05:31.512Z,101516.13
2023-02-28T11:08:22.540Z,101519.52
2023-02-28T11:11:12.894Z,101509.13
2023-02-28T11:14:08.167Z,101523.40
2023-02-28T11:17:00.368Z,101510.88
2023-02-28T11:19:53.098Z,101491.55
2023-02-28T11:22:48.824Z,101492.45
2023-02-28T11:25:41.562Z,101479.74
2023-02-28T11:28:34.078Z,101493.80
2023-02-28T11:31:24.011Z,101498.48
2023-02-28T11:34:31.009Z,101489.21
2023-02-28T11:37:23.198Z,101488.28
2023-02-28T11:40:18.273Z,101484.22
2023-02-28T11:43:31.871Z,101481.05
2023-02-28T11:46:32.668Z,101467.95
2023-02-28T11:49:38.324Z,101447.95
2023-02-28T11:52:41.237Z,101453.93
2023-02-28T11:55:34.986Z,101460.77
2023-02-28T11:58:52.544Z,101451.70
2023-02-28T12:02:02.944Z,101450.54
2023-02-28T12:05:04.149Z,101438.41
2023-02-28T12:08:05.999Z,101430.02
2023-02-28T12:11:06.012Z,101411.20
2023-02-28T12:14:21.446Z,101411.52
2023-02-28T12:17:24.082Z,101419.32
2023-02-28T12:20:26.268Z,101398.48
2023-02-28T12:23:38.646Z,101376.65
2023-02-28T12:26:37.638Z,101386.86
2023-02-28T12:29:31.521Z,101376.86
2023-02-28T12:32:27.010Z,101385.36
2023-02-28T12:35:21.046Z,101376.57
2023-02-28T12:38:18.784Z,101380.10
2023-02-28T12:41:12.905Z,101375.95
2023-02-28T12:44:08.335Z,101375.29
2023-02-28T12:47:02.100Z,101371.79
2023-02-28T12:49:56.731Z,101364.86
2023-02-28T12:52:56.767Z,101361.02
2023-02-28T12:55:58.983Z,101366.91
2023-02-28T12:58:52.951Z,101359.73
2023-02-28T13:02:27.891Z,101346.09
2023-02-28T13:05:47.735Z,101343.73
2023-02-28T13:09:04.221Z,101336.90
2023-02-28T13:11:56.761Z,101334.67
2023-02-28T13:14:47.937Z,101354.83
2023-02-28T13:17:38.138Z,101359.90
2023-02-28T13:20:32.195Z,101349.10
2023-02-28T13:23:42.885Z,101360.27
2023-02-28T13:27:10.531Z,101359.05
2023-02-28T13:30:01.040Z,101358.17
2023-02-28T13:33:30.889Z,101349.67
2023-02-28T13:36:34.111Z,101352.84
2023-02-28T13:39:51.801Z,101357.39
2023-02-28T13:42:52.336Z,101357.68
2023-02-28T13:46:03.409Z,101349.45
2023-02-28T13:48:54.207Z,101342.44
2023-02-28T13:51:49.576Z,101346.02
2023-02-28T13:54:54.770Z,101332.25
2023-02-28T13:58:01.727Z,101331.34
2023-02-28T14:01:14.893Z,101322.14
2023-02-28T14:04:32.355Z,101319.88
2023-02-28T14:07:27.644Z,101318.81
2023-02-28T14:10:28.950Z,101313.40
2023-02-28T14:13:48.086Z,101323.20
2023-02-28T14:16:46.821Z,101311.27
2023-02-28T14:19:40.356Z,101310.60
2023-02-28T14:23:01.184Z,101313.52
2023-02-28T14:26:04.563Z,101304.78
2023-02-28T14:29:18.531Z,101310.15
2023-02-28T14:32:17.370Z,101315.23
2023-02-28T14:35:22.668Z,101320.52
2023-02-28T14:38:26.072Z,101315.52
2023-02-28T14:41:25.571Z,101307.84
2023-02-28T14:44:21.762Z,101307.11
2023-02-28T14:47:18.830Z,101311.08
2023-02-28T14:50:20.168Z,101316.89
2023-02-28T14:53:17.804Z,101311.77
2023-02-28T14:56:20.292Z,101316.56
2023-02-28T14:59:28.546Z,101313.20
2023-02-28T15:02:26.827Z,101301.68
2023-02-28T15:05:27.977Z,101320.83
2023-02-28T15:08:19.050Z,101315.86
2023-02-28T15:11:15.368Z,101314.98
2023-02-28T15:14:06.416Z,101319.00
2023-02-28T15:17:04.076Z,101330.42
2023-02-28T15:19:56.965Z,101321.45
2023-02-28T15:22:52.564Z,101324.41
2023-02-28T15:25:44.426Z,101317.95
2023-02-28T15:28:35.008Z,101316.98
2023-02-28T15:31:36.188Z,101307.65
2023-02-28T15:34:46.119Z,101302.81
2023-02-28T15:37:47.916Z,101308.99
2023-02-28T15:40:43.169Z,101320.20
2023-02-28T15:43:34.843Z,101322.89
2023-02-28T15:46:27.542Z,101306.47
2023-02-28T15:49:24.523Z,101314.22
2023-02-28T15:52:18.975Z,101316.59
2023-02-28T15:55:20.408Z,101317.18
2023-02-28T15:58:15.069Z,101300.84
2023-02-28T16:01:23.084Z,101313.79
2023-02-28T16:04:20.341Z,101298.94
2023-02-28T16:07:16.443Z,101309.54
2023-02-28T16:10:08.642Z,101297.11
2023-02-28T16:12:59.924Z,101306.90
2023-02-28T16:15:52.637Z,101312.20
2023-02-28T16:18:42.972Z,101308.06
2023-02-28T16:21:33.200Z,101299.88
2023-02-28T16:24:23.412Z,101297.82
2023-02-28T16:27:21.518Z,101295.62
2023-02-28T16:30:21.207Z,101303.21
2023-02-28T16:33:13.680Z,101286.78
2023-02-28T16:36:05.060Z,101291.62
2023-02-28T16:38:56.666Z,101283.92
2023-02-28T16:41:52.221Z,101268.80
2023-02-28T16:44:42.368Z,101259.14
2023-02-28T16:47:33.947Z,101258.45
2023-02-28T16:50:25.637Z,101259.70
2023-02-28T16:53:15.464Z,101252.77
2023-02-28T16:56:07.951Z,101239.77
2023-02-28T16:59:02.686Z,101238.55
2023-02-28T17:01:53.094Z,101237.11
2023-02-28T17:04:43.235Z,101234.90
2023-02-28T17:07:33.355Z,101230.65
2023-02-28T17:10:26.445Z,101226.41
2023-02-28T17:13:16.547Z,101235.23
2023-02-28T17:16:13.629Z,101229.66
2023-02-28T17:19:05.830Z,101226.39
2023-02-28T17:21:55.691Z,101234.88
2023-02-28T17:24:46.472Z,101231.13
2023-02-28T17:27:40.096Z,101231.95
2023-02-28T17:30:31.538Z,101238.76
2023-02-28T17:33:23.936Z,101234.30
2023-02-28T17:36:18.002Z,101226.31
2023-02-28T17:39:11.452Z,101219.77
2023-02-28T17:42:01.305Z,101237.54
2023-02-28T17:44:52.994Z,101241.63
2023-02-28T17:47:44.543Z,101267.98
2023-02-28T17:50:35.251Z,101276.45
2023-02-28T17:53:25.022Z,101292.27
2023-02-28T17:56:21.902Z,101308.84
2023-02-28T17:59:13.882Z,101320.14
2023-02-28T18:02:04.698Z,101329.70
2023-02-28T18:04:55.231Z,101336.45
2023-02-28T18:07:45.654Z,101335.90
2023-02-28T18:10:35.647Z,101344.48
2023-02-28T18:13:25.532Z,101362.14
2023-02-28T18:16:16.254Z,101370.13
2023-02-28T18:19:07.149Z,101375.53
2023-02-28T18:21:57.863Z,101368.39
2023-02-28T18:24:47.917Z,101381.78
2023-02-28T18:27:38.456Z,101385.99
2023-02-28T18:30:31.561Z,101387.26
2023-02-28T18:33:21.938Z,101388.09
2023-02-28T18:36:12.656Z,101396.50
2023-02-28T18:39:02.697Z,101402.14
2023-02-28T18:41:52.392Z,101404.15
2023-02-28T18:44:42.750Z,101394.77
2023-02-28T18:47:33.692Z,101383.38
2023-02-28T18:50:23.850Z,101389.93
2023-02-28T18:53:14.114Z,101386.66
2023-02-28T18:56:05.632Z,101391.05
2023-02-28T18:58:56.254Z,101386.00
2023-02-28T19:01:46.875Z,101386.84
2023-02-28T19:04:36.857Z,101389.57
2023-02-28T19:07:27.097Z,101393.76
2023-02-28T19:10:19.879Z,101398.02
2023-02-28T19:13:12.962Z,101391.15
2023-02-28T19:16:07.285Z,101389.67
2023-02-28T19:18:58.312Z,101401.30
2023-02-28T19:21:48.406Z,101397.63
2023-02-28T19:24:38.920Z,101386.00
2023-02-28T19:27:29.322Z,101400.70
2023-02-28T19:30:21.041Z,101400.59
2023-02-28T19:33:11.971Z,101406.95
2023-02-28T19:36:04.075Z,101402.39
2023-02-28T19:38:53.886Z,101410.54
2023-02-28T19:41:43.870Z,101407.62
2023-02-28T19:44:33.887Z,101406.92
2023-02-28T19:47:24.327Z,101406.08
2023-02-28T19:50:15.583Z,101402.36
2023-02-28T19:53:06.145Z,101405.71
2023-02-28T19:55:56.677Z,101393.52
2023-02-28T19:58:46.742Z,101380.39
2023-02-28T20:01:37.220Z,101380.77
2023-02-28T20:04:28.244Z,101374.82
2023-02-28T20:07:20.415Z,101361.50
2023-02-28T20:10:13.501Z,101369.78
2023-02-28T20:13:03.620Z,101365.48
2023-02-28T20:15:54.019Z,101371.03
2023-02-28T20:18:46.355Z,101362.98
2023-02-28T20:21:36.676Z,101355.40
2023-02-28T20:24:27.096Z,101358.39
2023-02-28T20:27:17.493Z,101352.73
2023-02-28T20:30:09.759Z,101349.63
2023-02-28T20:33:00.239Z,101358.48
2023-02-28T20:35:52.970Z,101368.14
2023-02-28T20:38:43.767Z,101376.29
2023-02-28T20:41:34.209Z,101374.98
2023-02-28T20:44:24.768Z,101376.11
2023-02-28T20:47:14.674Z,101370.96
2023-02-28T20:50:04.594Z,101366.63
2023-02-28T20:52:54.818Z,101368.42
2023-02-28T20:55:54.583Z,101371.58
2023-02-28T20:58:46.834Z,101379.63
2023-02-28T21:01:36.940Z,101375.64
2023-02-28T21:04:26.834Z,101366.77
2023-02-28T21:07:16.942Z,101367.64
2023-02-28T21:10:09.604Z,101357.86
2023-02-28T21:12:59.539Z,101347.55
2023-02-28T21:15:49.441Z,101344.34
2023-02-28T21:18:41.064Z,101343.77
2023-02-28T21:21:32.397Z,101328.46
2023-02-28T21:24:25.214Z,101338.80
2023-02-28T21:27:16.596Z,101342.09
2023-02-28T21:30:08.236Z,101344.33
2023-02-28T21:32:58.866Z,101345.84
2023-02-28T21:35:49.461Z,101346.13
2023-02-28T21:38:40.633Z,101331.80
2023-02-28T21:41:30.731Z,101334.14
2023-02-28T21:44:23.041Z,101337.63
2023-02-28T21:47:13.270Z,101326.27
2023-02-28T21:50:03.146Z,101312.75
2023-02-28T21:52:53.130Z,101313.46
2023-02-28T21:55:43.040Z,101298.84
2023-02-28T21:58:33.224Z,101293.39
2023-02-28T22:01:24.380Z,101294.87
2023-02-28T22:04:21.242Z,101310.77
2023-02-28T22:07:14.108Z,101307.54
2023-02-28T22:10:05.035Z,101299.41
2023-02-28T22:12:55.538Z,101299.26
2023-02-28T22:15:45.924Z,101293.09
2023-02-28T22:18:37.361Z,101291.58
2023-02-28T22:21:27.730Z,101296.52
2023-02-28T22:24:20.805Z,101290.84
2023-02-28T22:27:10.945Z,101292.95
2023-02-28T22:30:01.447Z,101298.58
2023-02-28T22:32:51.719Z,101305.84
2023-02-28T22:35:41.981Z,101306.80
2023-02-28T22:38:35.417Z,101304.27
2023-02-28T22:41:26.748Z,101313.41
2023-02-28T22:44:17.884Z,101316.31
2023-02-28T22:47:08.680Z,101308.20
2023-02-28T22:49:58.832Z,101300.65
2023-02-28T22:52:49.113Z,101295.94
2023-02-28T22:55:39.456Z,101298.43
2023-02-28T22:58:29.891Z,101300.55
2023-02-28T23:01:22.246Z,101295.17
2023-02-28T23:04:13.994Z,101294.89
2023-02-28T23:07:04.975Z,101300.93
2023-02-28T23:09:55.366Z,101295.42
2023-02-28T23:12:53.551Z,101285.31
2023-02-28T23:15:43.974Z,101281.76
2023-02-28T23:18:34.330Z,101273.69
2023-02-28T23:21:25.431Z,101260.59
2023-02-28T23:24:18.218Z,101253.35
2023-02-28T23:27:08.816Z,101244.91
2023-02-28T23:29:58.781Z,101257.20
2023-02-28T23:32:49.446Z,101256.95
2023-02-28T23:35:39.511Z,101253.63
2023-02-28T23:38:30.153Z,101258.66
2023-02-28T23:41:21.205Z,101252.22
2023-02-28T23:44:17.123Z,101267.20
2023-02-28T23:47:07.718Z,101269.42
2023-02-28T23:49:57.680Z,101257.83
2023-02-28T23:52:48.152Z,101245.94
2023-02-28T23:55:38.474Z,101233.79
2023-02-28T23:58:28.434Z,101249.45
